createdAt,value
2019-05-05T00:01:56.183Z,21.02
2019-05-05T00:04:41.442Z,18.10
2019-05-05T00:07:08.796Z,15.65
2019-05-05T00:09:35.860Z,14.33
2019-05-05T00:12:14.726Z,18.20
2019-05-05T00:14:44.235Z,17.57
2019-05-05T00:17:16.836Z,13.53
2019-05-05T00:19:45.432Z,14.63
2019-05-05T00:22:15.110Z,13.25
2019-05-05T00:24:44.356Z,15.32
2019-05-05T00:27:11.554Z,11.53
2019-05-05T00:29:38.615Z,8.73
2019-05-05T00:32:05.744Z,8.25
2019-05-05T00:34:34.949Z,10.20
2019-05-05T00:37:04.453Z,12.35
2019-05-05T00:39:31.730Z,10.18
2019-05-05T00:41:58.958Z,12.33
2019-05-05T00:44:26.051Z,13.83
2019-05-05T00:46:54.999Z,11.15
2019-05-05T00:49:25.034Z,10.32
2019-05-05T00:51:54.678Z,11.08
2019-05-05T00:54:24.293Z,9.78
2019-05-05T00:56:51.370Z,7.22
2019-05-05T00:59:20.562Z,8.05
2019-05-05T01:01:59.687Z,7.70
2019-05-05T01:04:45.348Z,5.55
2019-05-05T01:07:14.304Z,6.00
2019-05-05T01:09:42.231Z,6.90
2019-05-05T01:12:10.591Z,5.90
2019-05-05T01:14:37.985Z,6.75
2019-05-05T01:17:05.409Z,7.12
2019-05-05T01:19:34.971Z,4.70
2019-05-05T01:22:04.825Z,5.30
2019-05-05T01:24:31.899Z,4.12
2019-05-05T01:26:59.507Z,6.75
2019-05-05T01:29:26.643Z,4.35
2019-05-05T01:31:55.744Z,5.78
2019-05-05T01:34:24.377Z,4.03
2019-05-05T01:36:54.399Z,3.55
2019-05-05T01:39:28.452Z,5.05
2019-05-05T01:41:57.634Z,4.87
2019-05-05T01:44:24.810Z,6.45
2019-05-05T01:46:51.814Z,7.15
2019-05-05T01:49:19.144Z,6.70
2019-05-05T01:51:46.476Z,7.67
2019-05-05T01:54:14.454Z,10.32
2019-05-05T01:56:41.985Z,6.40
2019-05-05T01:59:09.670Z,5.08
2019-05-05T02:01:36.775Z,5.35
2019-05-05T02:04:05.491Z,8.33
2019-05-05T02:06:34.904Z,4.83
2019-05-05T02:09:05.295Z,4.30
2019-05-05T02:11:35.171Z,4.60
2019-05-05T02:14:02.134Z,3.90
2019-05-05T02:16:29.049Z,6.50
2019-05-05T02:18:56.449Z,5.40
2019-05-05T02:21:24.741Z,6.20
2019-05-05T02:23:52.080Z,5.08
2019-05-05T02:26:19.521Z,4.72
2019-05-05T02:28:48.722Z,4.15
2019-05-05T02:31:21.393Z,4.05
2019-05-05T02:33:49.030Z,3.35
2019-05-05T02:36:16.597Z,3.15
2019-05-05T02:38:46.183Z,3.15
2019-05-05T02:41:15.511Z,2.65
2019-05-05T02:43:44.983Z,3.33
2019-05-05T02:46:27.345Z,3.83
2019-05-05T02:48:58.040Z,3.08
2019-05-05T02:51:27.643Z,4.37
2019-05-05T02:53:58.467Z,4.62
2019-05-05T02:56:35.224Z,3.95
2019-05-05T02:59:06.554Z,2.92
2019-05-05T03:01:34.478Z,2.52
2019-05-05T03:04:04.077Z,2.80
2019-05-05T03:06:31.580Z,3.60
2019-05-05T03:09:00.000Z,4.72
2019-05-05T03:11:31.031Z,3.35
2019-05-05T03:14:03.964Z,3.10
2019-05-05T03:16:35.463Z,4.67
2019-05-05T03:19:04.663Z,3.10
2019-05-05T03:21:33.516Z,3.22
2019-05-05T03:24:01.043Z,2.55
2019-05-05T03:26:28.567Z,3.00
2019-05-05T03:28:58.267Z,2.12
2019-05-05T03:31:26.590Z,2.95
2019-05-05T03:33:55.222Z,3.05
2019-05-05T03:36:24.459Z,3.10
2019-05-05T03:38:53.622Z,2.85
2019-05-05T03:41:24.832Z,4.05
2019-05-05T03:44:09.116Z,4.15
2019-05-05T03:46:36.855Z,5.40
2019-05-05T03:49:04.895Z,4.15
2019-05-05T03:51:34.373Z,3.95
2019-05-05T03:54:04.143Z,4.37
2019-05-05T03:56:31.391Z,6.75
2019-05-05T03:58:59.679Z,5.75
2019-05-05T04:01:37.394Z,4.97
2019-05-05T04:04:24.483Z,3.95
2019-05-05T04:07:01.822Z,3.45
2019-05-05T04:09:29.155Z,5.10
2019-05-05T04:11:56.756Z,3.87
2019-05-05T04:14:25.058Z,3.27
2019-05-05T04:17:11.033Z,4.10
2019-05-05T04:19:44.503Z,6.42
2019-05-05T04:22:13.545Z,4.72
2019-05-05T04:24:40.871Z,4.10
2019-05-05T04:27:08.228Z,3.92
2019-05-05T04:29:35.276Z,4.75
2019-05-05T04:32:04.457Z,4.60
2019-05-05T04:34:31.332Z,2.90
2019-05-05T04:36:58.555Z,3.70
2019-05-05T04:39:25.919Z,3.62
2019-05-05T04:41:54.557Z,2.85
2019-05-05T04:44:23.529Z,3.90
2019-05-05T04:46:54.617Z,3.40
2019-05-05T04:49:26.227Z,3.83
2019-05-05T04:51:55.239Z,5.90
2019-05-05T04:54:27.120Z,4.50
2019-05-05T04:56:54.443Z,4.37
2019-05-05T04:59:23.398Z,3.30
2019-05-05T05:01:54.459Z,3.50
2019-05-05T05:04:33.646Z,2.72
2019-05-05T05:07:04.594Z,2.83
2019-05-05T05:09:34.044Z,5.10
2019-05-05T05:12:01.284Z,4.12
2019-05-05T05:14:28.727Z,2.55
2019-05-05T05:16:58.209Z,3.98
2019-05-05T05:19:25.115Z,3.30
2019-05-05T05:22:01.345Z,2.33
2019-05-05T05:24:23.832Z,2.75
2019-05-05T05:26:51.274Z,2.30
2019-05-05T05:37:59.315Z,2.30
2019-05-05T05:40:30.103Z,2.72
2019-05-05T05:43:00.411Z,2.37
2019-05-05T05:45:29.825Z,2.80
2019-05-05T05:47:56.768Z,3.50
2019-05-05T05:50:25.584Z,3.92
2019-05-05T05:52:54.051Z,3.55
2019-05-05T05:55:21.290Z,4.08
2019-05-05T05:57:48.527Z,2.87
2019-05-05T06:00:16.576Z,3.15
2019-05-05T06:02:44.110Z,3.52
2019-05-05T06:05:11.475Z,3.17
2019-05-05T06:07:38.507Z,3.77
2019-05-05T06:10:06.567Z,4.00
2019-05-05T06:12:33.765Z,6.80
2019-05-05T06:15:00.819Z,3.60
2019-05-05T06:17:27.851Z,4.50
2019-05-05T06:19:54.847Z,5.40
2019-05-05T06:22:28.553Z,4.22
2019-05-05T06:24:50.635Z,6.20
2019-05-05T06:27:17.554Z,5.70
2019-05-05T06:29:45.095Z,7.97
2019-05-05T06:32:14.492Z,8.95
2019-05-05T06:34:41.423Z,9.80
2019-05-05T06:37:08.909Z,8.83
2019-05-05T06:39:35.963Z,5.75
2019-05-05T06:42:20.030Z,7.67
2019-05-05T06:44:48.955Z,9.00
2019-05-05T06:47:17.764Z,10.72
2019-05-05T06:49:44.699Z,8.80
2019-05-05T06:52:11.575Z,7.03
2019-05-05T06:54:38.813Z,8.88
2019-05-05T06:57:05.915Z,8.93
2019-05-05T06:59:34.969Z,9.40
2019-05-05T07:02:04.054Z,9.20
2019-05-05T07:04:31.107Z,9.90
2019-05-05T07:06:58.235Z,8.88
2019-05-05T07:09:25.182Z,14.20
2019-05-05T07:11:54.105Z,17.75
2019-05-05T07:14:23.502Z,13.90
2019-05-05T07:16:50.432Z,12.80
2019-05-05T07:19:17.449Z,11.45
2019-05-05T07:21:44.601Z,15.98
2019-05-05T07:24:11.690Z,13.80
2019-05-05T07:26:39.046Z,16.80
2019-05-05T07:29:06.038Z,22.05
2019-05-05T07:31:34.263Z,21.27
2019-05-05T07:34:01.723Z,14.00
2019-05-05T07:36:33.895Z,9.03
2019-05-05T07:39:00.508Z,8.83
2019-05-05T07:41:27.603Z,6.62
2019-05-05T07:43:54.442Z,12.93
2019-05-05T07:46:21.337Z,12.98
2019-05-05T07:48:48.606Z,11.57
2019-05-05T07:51:15.925Z,13.08
2019-05-05T07:53:44.280Z,8.50
2019-05-05T07:56:11.411Z,11.73
2019-05-05T07:58:38.635Z,10.40
2019-05-05T08:01:05.731Z,10.30
2019-05-05T08:03:33.886Z,6.78
2019-05-05T08:06:01.195Z,5.00
2019-05-05T08:08:28.204Z,5.45
2019-05-05T08:10:55.620Z,8.15
2019-05-05T08:13:24.308Z,7.92
2019-05-05T08:15:59.701Z,9.08
2019-05-05T08:18:31.651Z,9.90
2019-05-05T08:23:41.883Z,13.53
2019-05-05T08:26:15.070Z,9.03
2019-05-05T08:28:47.579Z,8.98
2019-05-05T08:31:16.717Z,8.18
2019-05-05T08:33:44.270Z,6.83
2019-05-05T08:36:12.114Z,7.65
2019-05-05T08:38:39.156Z,10.72
2019-05-05T08:41:06.401Z,12.53
2019-05-05T08:43:34.743Z,13.10
2019-05-05T08:46:01.953Z,14.55
2019-05-05T08:48:29.162Z,13.08
2019-05-05T08:50:56.261Z,10.95
2019-05-05T08:53:24.293Z,9.93
2019-05-05T08:55:51.559Z,11.45
2019-05-05T08:58:18.929Z,15.00
2019-05-05T09:00:45.923Z,10.55
2019-05-05T09:03:14.004Z,15.08
2019-05-05T09:05:41.183Z,25.92
2019-05-05T09:08:08.126Z,32.70
2019-05-05T09:10:35.091Z,11.78
2019-05-05T09:13:03.759Z,49.35
2019-05-05T09:15:30.836Z,82.80
2019-05-05T09:17:57.867Z,52.03
2019-05-05T09:20:24.863Z,23.07
2019-05-05T09:22:53.565Z,12.05
2019-05-05T09:25:31.632Z,9.70
2019-05-05T09:28:09.467Z,10.30
2019-05-05T09:30:39.869Z,16.00
2019-05-05T09:33:07.079Z,15.15
2019-05-05T09:35:34.263Z,21.37
2019-05-05T09:38:03.869Z,26.27
2019-05-05T09:40:37.441Z,15.40
2019-05-05T09:43:06.142Z,23.38
2019-05-05T09:45:34.187Z,22.37
2019-05-05T09:48:01.226Z,18.37
2019-05-05T09:50:28.442Z,15.93
2019-05-05T09:52:55.387Z,17.48
2019-05-05T09:55:24.177Z,15.38
2019-05-05T09:57:51.419Z,20.52
2019-05-05T10:00:18.760Z,19.02
2019-05-05T10:02:45.852Z,29.27
2019-05-05T10:05:14.514Z,76.37
2019-05-05T10:07:43.899Z,46.88
2019-05-05T10:10:13.792Z,65.78
2019-05-05T10:12:44.378Z,36.33
2019-05-05T10:15:13.883Z,20.90
2019-05-05T10:17:42.088Z,28.40
2019-05-05T10:20:09.841Z,27.90
2019-05-05T10:22:36.874Z,33.25
2019-05-05T10:25:24.559Z,27.07
2019-05-05T10:27:53.968Z,39.58
2019-05-05T10:30:23.382Z,21.68
2019-05-05T10:32:50.684Z,51.35
2019-05-05T10:35:17.625Z,37.35
2019-05-05T10:37:44.423Z,72.17
2019-05-05T10:40:15.203Z,51.25
2019-05-05T10:42:50.827Z,70.40
2019-05-05T10:45:20.722Z,69.85
2019-05-05T10:47:49.122Z,31.97
2019-05-05T10:50:16.256Z,36.10
2019-05-05T10:52:44.309Z,26.57
2019-05-05T10:55:14.538Z,27.37
2019-05-05T10:57:43.603Z,33.00
2019-05-05T11:00:15.491Z,28.95
2019-05-05T11:02:42.347Z,35.83
2019-05-05T11:05:10.335Z,51.73
2019-05-05T11:07:37.575Z,29.85
2019-05-05T11:10:05.683Z,33.70
2019-05-05T11:12:33.752Z,27.20
2019-05-05T11:15:01.007Z,23.83
2019-05-05T11:17:28.266Z,19.00
2019-05-05T11:19:55.455Z,24.80
2019-05-05T11:22:24.215Z,38.73
2019-05-05T11:24:58.361Z,31.85
2019-05-05T11:27:21.105Z,100.15
2019-05-05T11:29:50.104Z,87.57
2019-05-05T11:32:19.083Z,63.75
2019-05-05T11:34:46.205Z,45.08
2019-05-05T11:37:14.840Z,37.78
2019-05-05T11:39:44.428Z,32.73
2019-05-05T11:42:11.257Z,24.95
2019-05-05T11:44:38.559Z,19.10
2019-05-05T11:47:05.456Z,29.90
2019-05-05T11:49:33.680Z,21.20
2019-05-05T11:52:00.805Z,18.62
2019-05-05T11:54:28.215Z,23.52
2019-05-05T11:56:55.352Z,16.97
2019-05-05T11:59:23.776Z,21.20
2019-05-05T12:01:51.108Z,23.55
2019-05-05T12:04:18.131Z,36.60
2019-05-05T12:06:45.256Z,30.95
2019-05-05T12:09:14.387Z,33.05
2019-05-05T12:11:43.736Z,47.23
2019-05-05T12:14:14.280Z,44.13
2019-05-05T12:16:43.888Z,44.03
2019-05-05T12:19:13.773Z,31.45
2019-05-05T12:21:40.868Z,16.57
2019-05-05T12:24:10.136Z,26.50
2019-05-05T12:26:39.019Z,59.95
2019-05-05T12:29:07.647Z,26.85
2019-05-05T12:31:36.508Z,38.35
2019-05-05T12:34:03.981Z,57.83
2019-05-05T12:36:31.515Z,98.37
2019-05-05T12:38:59.313Z,87.90
2019-05-05T12:41:26.799Z,28.60
2019-05-05T12:43:54.904Z,65.55
2019-05-05T12:46:36.302Z,53.73
2019-05-05T12:49:08.070Z,47.00
2019-05-05T12:51:35.612Z,76.42
2019-05-05T12:54:04.498Z,43.35
2019-05-05T12:56:33.983Z,87.00
2019-05-05T12:59:03.795Z,52.25
2019-05-05T13:01:35.883Z,67.27
2019-05-05T13:04:03.623Z,46.63
2019-05-05T13:06:30.843Z,45.95
2019-05-05T13:08:58.058Z,25.82
2019-05-05T13:11:25.344Z,63.35
2019-05-05T13:13:54.361Z,36.73
2019-05-05T13:16:23.117Z,43.42
2019-05-05T13:18:51.195Z,56.63
2019-05-05T13:21:18.269Z,42.90
2019-05-05T13:23:50.471Z,37.05
2019-05-05T13:26:23.697Z,49.15
2019-05-05T13:28:51.223Z,71.17
2019-05-05T13:31:18.373Z,31.77
2019-05-05T13:33:45.589Z,34.23
2019-05-05T13:36:13.803Z,34.55
2019-05-05T13:38:41.225Z,27.85
2019-05-05T13:41:08.349Z,26.68
2019-05-05T13:43:35.165Z,26.23
2019-05-05T13:46:04.652Z,23.05
2019-05-05T13:48:33.370Z,29.10
2019-05-05T13:51:06.049Z,27.62
2019-05-05T13:53:34.287Z,24.95
2019-05-05T13:56:11.225Z,20.55
2019-05-05T13:58:30.684Z,18.55
2019-05-05T14:00:57.889Z,30.75
2019-05-05T14:03:25.005Z,25.35
2019-05-05T14:05:54.005Z,26.82
2019-05-05T14:08:23.623Z,22.45
2019-05-05T14:10:50.550Z,20.70
2019-05-05T14:13:17.916Z,19.37
2019-05-05T14:15:45.155Z,17.92
2019-05-05T14:18:14.287Z,16.50
2019-05-05T14:20:43.492Z,17.62
2019-05-05T14:23:10.692Z,15.83
2019-05-05T14:25:38.096Z,18.35
2019-05-05T14:28:05.235Z,20.32
2019-05-05T14:30:34.262Z,20.05
2019-05-05T14:33:03.742Z,22.00
2019-05-05T14:35:34.229Z,29.63
2019-05-05T14:38:01.634Z,22.13
2019-05-05T14:40:29.000Z,17.85
2019-05-05T14:42:56.352Z,20.12
2019-05-05T14:45:23.883Z,19.87
2019-05-05T14:47:51.015Z,15.83
2019-05-05T14:50:18.395Z,19.62
2019-05-05T14:52:45.971Z,19.60
2019-05-05T14:55:14.120Z,20.05
2019-05-05T14:57:41.283Z,19.67
2019-05-05T15:00:11.207Z,34.67
2019-05-05T15:02:38.552Z,36.68
2019-05-05T15:05:24.635Z,22.27
2019-05-05T15:07:53.759Z,27.93
2019-05-05T15:10:23.965Z,20.75
2019-05-05T15:12:53.838Z,17.90
2019-05-05T15:15:20.892Z,24.63
2019-05-05T15:17:48.029Z,23.90
2019-05-05T15:20:15.751Z,25.40
2019-05-05T15:22:43.642Z,25.12
2019-05-05T15:25:11.970Z,30.97
2019-05-05T15:27:39.169Z,34.03
2019-05-05T15:30:06.636Z,34.23
2019-05-05T15:32:34.396Z,30.55
2019-05-05T15:35:03.843Z,31.35
2019-05-05T15:37:31.113Z,28.95
2019-05-05T15:39:58.178Z,30.57
2019-05-05T15:42:25.377Z,36.40
2019-05-05T15:44:54.288Z,35.70
2019-05-05T15:47:23.526Z,32.85
2019-05-05T15:49:50.181Z,28.27
2019-05-05T15:52:20.082Z,28.98
2019-05-05T15:54:46.431Z,33.80
2019-05-05T15:57:14.896Z,32.53
2019-05-05T15:59:43.655Z,30.60
2019-05-05T16:02:11.112Z,29.90
2019-05-05T16:04:38.169Z,28.27
2019-05-05T16:07:05.576Z,26.82
2019-05-05T16:09:32.818Z,30.35
2019-05-05T16:11:59.926Z,26.25
2019-05-05T16:14:27.809Z,24.15
2019-05-05T16:16:56.731Z,30.00
2019-05-05T16:19:27.859Z,32.78
2019-05-05T16:21:56.598Z,28.32
2019-05-05T16:24:25.508Z,25.77
2019-05-05T16:26:53.733Z,30.40
2019-05-05T16:29:21.508Z,33.15
2019-05-05T16:31:48.879Z,35.38
2019-05-05T16:34:15.947Z,41.85
2019-05-05T16:36:44.023Z,41.45
2019-05-05T16:39:11.445Z,39.55
2019-05-05T16:41:38.451Z,36.48
2019-05-05T16:44:05.714Z,35.78
2019-05-05T16:46:34.171Z,42.73
2019-05-05T16:49:03.527Z,42.40
2019-05-05T16:51:34.814Z,41.60
2019-05-05T16:54:04.672Z,41.83
2019-05-05T16:56:33.567Z,42.03
2019-05-05T16:59:00.816Z,37.30
2019-05-05T17:01:27.716Z,44.73
2019-05-05T17:03:54.663Z,46.05
2019-05-05T17:06:21.731Z,50.48
2019-05-05T17:08:48.566Z,47.00
2019-05-05T17:11:15.564Z,49.08
2019-05-05T17:13:48.569Z,40.08
2019-05-05T17:16:35.289Z,35.65
2019-05-05T17:19:04.440Z,38.20
2019-05-05T17:21:34.098Z,38.10
2019-05-05T17:24:01.181Z,39.05
2019-05-05T17:26:28.238Z,45.15
2019-05-05T17:28:55.454Z,43.23
2019-05-05T17:31:24.247Z,44.08
2019-05-05T17:33:53.449Z,42.23
2019-05-05T17:36:21.675Z,42.27
2019-05-05T17:38:48.640Z,41.15
2019-05-05T17:41:34.422Z,45.58
2019-05-05T17:44:06.183Z,56.63
2019-05-05T17:46:44.509Z,59.95
2019-05-05T17:49:22.925Z,45.60
2019-05-05T17:51:50.537Z,41.15
2019-05-05T17:54:24.219Z,46.75
2019-05-05T17:56:54.427Z,42.88
2019-05-05T17:59:20.555Z,31.25
2019-05-05T18:01:47.654Z,28.62
2019-05-05T18:04:14.842Z,37.53
2019-05-05T18:06:46.445Z,32.78
2019-05-05T18:09:30.228Z,24.43
2019-05-05T18:12:17.348Z,30.60
2019-05-05T18:14:46.133Z,33.55
2019-05-05T18:17:13.686Z,33.75
2019-05-05T18:19:40.740Z,32.65
2019-05-05T18:22:08.155Z,31.12
2019-05-05T18:24:35.061Z,28.85
2019-05-05T18:27:02.044Z,27.70
2019-05-05T18:29:28.941Z,33.10
2019-05-05T18:31:55.894Z,40.10
2019-05-05T18:34:23.553Z,38.88
2019-05-05T18:36:54.193Z,37.30
2019-05-05T18:39:21.388Z,35.83
2019-05-05T18:41:50.285Z,45.20
2019-05-05T18:44:24.166Z,88.92
2019-05-05T18:47:13.015Z,30.35
2019-05-05T18:49:39.523Z,17.50
2019-05-05T18:52:07.028Z,30.10
2019-05-05T18:54:34.065Z,36.42
2019-05-05T18:57:01.234Z,114.85
2019-05-05T18:59:28.399Z,109.85
2019-05-05T19:02:14.392Z,76.42
2019-05-05T19:04:48.565Z,55.00
2019-05-05T19:07:17.097Z,29.35
2019-05-05T19:09:53.701Z,27.58
2019-05-05T19:12:13.121Z,39.85
2019-05-05T19:14:40.690Z,79.87
2019-05-05T19:17:08.443Z,38.85
2019-05-05T19:19:36.867Z,50.55
2019-05-05T19:22:09.391Z,19.37
2019-05-05T19:24:36.762Z,15.65
2019-05-05T19:27:04.140Z,17.85
2019-05-05T19:29:31.160Z,21.48
2019-05-05T19:31:58.184Z,19.82
2019-05-05T19:34:25.275Z,19.42
2019-05-05T19:36:54.460Z,17.77
2019-05-05T19:39:21.639Z,17.07
2019-05-05T19:41:48.656Z,15.40
2019-05-05T19:44:15.623Z,40.88
2019-05-05T19:46:47.120Z,21.45
2019-05-05T19:49:18.047Z,20.35
2019-05-05T19:51:46.357Z,16.93
2019-05-05T19:54:14.393Z,16.12
2019-05-05T19:56:42.093Z,15.25
2019-05-05T19:59:09.384Z,13.05
2019-05-05T20:01:37.810Z,19.30
2019-05-05T20:04:05.251Z,24.12
2019-05-05T20:06:32.411Z,24.20
2019-05-05T20:08:59.550Z,26.02
2019-05-05T20:11:26.933Z,23.05
2019-05-05T20:14:06.478Z,21.97
2019-05-05T20:16:26.341Z,20.82
2019-05-05T20:18:56.473Z,23.02
2019-05-05T20:21:23.757Z,23.98
2019-05-05T20:23:50.979Z,22.73
2019-05-05T20:26:18.170Z,49.83
2019-05-05T20:28:45.268Z,30.10
2019-05-05T20:31:14.132Z,22.15
2019-05-05T20:33:59.607Z,21.52
2019-05-05T20:36:28.528Z,35.65
2019-05-05T20:38:55.694Z,35.98
2019-05-05T20:41:24.876Z,34.95
2019-05-05T20:43:54.229Z,39.80
2019-05-05T20:46:23.533Z,41.13
2019-05-05T20:48:50.458Z,43.85
2019-05-05T20:51:17.684Z,32.03
2019-05-05T20:53:48.597Z,51.60
2019-05-05T20:56:14.911Z,39.58
2019-05-05T20:58:43.987Z,91.17
2019-05-05T21:01:11.240Z,60.80
2019-05-05T21:03:38.439Z,56.98
2019-05-05T21:06:05.625Z,51.13
2019-05-05T21:08:34.785Z,26.90
2019-05-05T21:11:01.786Z,22.07
2019-05-05T21:13:28.956Z,20.57
2019-05-05T21:15:56.196Z,18.42
2019-05-05T21:18:23.898Z,17.12
2019-05-05T21:20:54.282Z,14.07
2019-05-05T21:23:34.118Z,14.25
2019-05-05T21:26:20.068Z,33.73
2019-05-05T21:28:47.565Z,38.85
2019-05-05T21:31:14.634Z,32.35
2019-05-05T21:33:41.991Z,35.08
2019-05-05T21:36:09.004Z,43.87
2019-05-05T21:38:36.453Z,43.20
2019-05-05T21:41:04.397Z,37.78
2019-05-05T21:43:31.587Z,38.50
2019-05-05T21:45:58.714Z,37.88
2019-05-05T21:48:25.609Z,30.85
2019-05-05T21:50:54.742Z,23.27
2019-05-05T21:53:24.632Z,28.05
2019-05-05T21:56:10.340Z,24.60
2019-05-05T21:58:43.825Z,22.70
2019-05-05T22:01:14.989Z,22.75
2019-05-05T22:03:44.251Z,15.65
2019-05-05T22:06:11.571Z,15.75
2019-05-05T22:08:38.619Z,11.53
2019-05-05T22:11:06.131Z,13.05
2019-05-05T22:13:36.144Z,10.32
2019-05-05T22:16:04.105Z,10.55
2019-05-05T22:18:31.623Z,10.50
2019-05-05T22:21:04.311Z,7.10
2019-05-05T22:23:30.958Z,11.00
2019-05-05T22:25:58.490Z,10.58
2019-05-05T22:28:26.535Z,9.15
2019-05-05T22:30:55.545Z,8.05
2019-05-05T22:33:24.666Z,8.03
2019-05-05T22:35:52.160Z,11.05
2019-05-05T22:38:19.062Z,9.30
2019-05-05T22:40:45.999Z,9.23
2019-05-05T22:43:14.470Z,9.13
2019-05-05T22:45:44.858Z,11.68
2019-05-05T22:48:11.373Z,9.65
2019-05-05T22:50:39.267Z,11.28
2019-05-05T22:53:06.429Z,8.75
2019-05-05T22:55:34.385Z,8.33
2019-05-05T22:58:03.833Z,10.58
2019-05-05T23:00:34.643Z,11.05
2019-05-05T23:03:04.474Z,10.82
2019-05-05T23:05:36.399Z,9.78
2019-05-05T23:08:04.101Z,12.03
2019-05-05T23:10:31.052Z,9.10
2019-05-05T23:12:58.090Z,11.73
2019-05-05T23:15:25.544Z,11.22
2019-05-05T23:18:00.520Z,8.50
2019-05-05T23:20:46.067Z,8.53
2019-05-05T23:23:15.114Z,7.60
2019-05-05T23:25:45.731Z,7.50
2019-05-05T23:28:14.703Z,12.47
2019-05-05T23:30:44.554Z,8.98
2019-05-05T23:33:10.978Z,10.18
2019-05-05T23:35:38.005Z,9.03
2019-05-05T23:38:05.116Z,7.80
2019-05-05T23:40:33.968Z,9.58
2019-05-05T23:43:01.205Z,8.20
2019-05-05T23:45:28.203Z,9.70
2019-05-05T23:47:55.338Z,9.98
2019-05-05T23:50:23.166Z,8.43
2019-05-05T23:52:50.063Z,7.20
2019-05-05T23:55:17.386Z,6.83
2019-05-05T23:57:44.793Z,9.40
